CSN6924 ZGHA-ZYTX
Flight info
| Callsign | CSN6924 |
|---|---|
| Flight time | 2h 33m |
| Altitude | 35100 |
| Route | GUDRO W56 LEBUN DCT NUDKU W56 VYK W34 OTBUL W35 CHG A575 OMDUS |
| Aircraft | A359/H-SDE2E3GHIJ3J4J5LM1ORWXY/LB1D1 |
Departure
| Time | 2026-05-08 12:41 |
|---|---|
| Airport | Changsha Huanghua International Airport (ZGHA) |
Arrival
| Time | 2026-05-08 15:14 |
|---|---|
| Airport | Shenyang Taoxian International Airport (ZYTX) |
| Time | Latitude | Longitude | Altitude | Speed | Heading |
|---|---|---|---|---|---|
| 2026-05-08 12:20 | 28.18743 | 113.21596 | 225 ft | 0 kts | 268° |
| 2026-05-08 12:34 | 28.18743 | 113.21606 | 224 ft | 4 kts | 268° |
| 2026-05-08 12:34 | 28.18744 | 113.21637 | 220 ft | 4 kts | 268° |
| 2026-05-08 12:34 | 28.18745 | 113.21664 | 221 ft | 3 kts | 267° |
| 2026-05-08 12:34 | 28.18750 | 113.21688 | 227 ft | 4 kts | 209° |
| 2026-05-08 12:35 | 28.18773 | 113.21689 | 221 ft | 4 kts | 166° |
| 2026-05-08 12:35 | 28.18793 | 113.21685 | 221 ft | 0 kts | 177° |
| 2026-05-08 12:35 | 28.18792 | 113.21685 | 221 ft | 0 kts | 177° |
| 2026-05-08 12:37 | 28.18742 | 113.21686 | 223 ft | 24 kts | 178° |
| 2026-05-08 12:37 | 28.18676 | 113.21710 | 220 ft | 0 kts | 134° |
| 2026-05-08 12:38 | 28.18666 | 113.21734 | 221 ft | 10 kts | 108° |
| 2026-05-08 12:38 | 28.18603 | 113.21805 | 229 ft | 19 kts | 162° |
| 2026-05-08 12:38 | 28.18467 | 113.21815 | 221 ft | 25 kts | 176° |
| 2026-05-08 12:38 | 28.18293 | 113.21828 | 225 ft | 24 kts | 176° |
| 2026-05-08 12:39 | 28.18123 | 113.21840 | 227 ft | 25 kts | 176° |
| 2026-05-08 12:39 | 28.17941 | 113.21851 | 225 ft | 27 kts | 177° |
| 2026-05-08 12:39 | 28.17769 | 113.21871 | 228 ft | 9 kts | 149° |
| 2026-05-08 12:39 | 28.17755 | 113.21904 | 224 ft | 5 kts | 112° |
| 2026-05-08 12:40 | 28.17747 | 113.21948 | 222 ft | 7 kts | 100° |
| 2026-05-08 12:40 | 28.17753 | 113.22003 | 230 ft | 7 kts | 63° |
| 2026-05-08 12:40 | 28.17797 | 113.22042 | 224 ft | 9 kts | 27° |
| 2026-05-08 12:40 | 28.17849 | 113.22044 | 226 ft | 17 kts | 358° |
| 2026-05-08 12:41 | 28.18219 | 113.22021 | 224 ft | 89 kts | 357° |
| 2026-05-08 12:41 | 28.19052 | 113.21969 | 224 ft | 149 kts | 357° |
| 2026-05-08 12:41 | 28.20196 | 113.21877 | 580 ft | 173 kts | 354° |
| 2026-05-08 12:41 | 28.21493 | 113.21744 | 979 ft | 195 kts | 356° |
| 2026-05-08 12:42 | 28.22847 | 113.21672 | 1818 ft | 201 kts | 360° |
| 2026-05-08 12:42 | 28.24274 | 113.21610 | 2586 ft | 207 kts | 0° |
| 2026-05-08 12:42 | 28.25730 | 113.21538 | 3396 ft | 211 kts | 359° |
| 2026-05-08 12:42 | 28.27222 | 113.21550 | 4063 ft | 217 kts | 9° |
| 2026-05-08 12:43 | 28.28605 | 113.22185 | 4625 ft | 217 kts | 39° |
| 2026-05-08 12:43 | 28.29597 | 113.23451 | 4870 ft | 219 kts | 56° |
| 2026-05-08 12:43 | 28.30443 | 113.24899 | 4898 ft | 221 kts | 58° |
| 2026-05-08 12:43 | 28.31275 | 113.26367 | 4902 ft | 222 kts | 57° |
| 2026-05-08 12:44 | 28.32124 | 113.27840 | 4905 ft | 222 kts | 57° |
| 2026-05-08 12:44 | 28.32977 | 113.29301 | 4900 ft | 222 kts | 57° |
| 2026-05-08 12:44 | 28.33836 | 113.30768 | 4909 ft | 230 kts | 57° |
| 2026-05-08 12:44 | 28.34785 | 113.32383 | 4892 ft | 257 kts | 56° |
| 2026-05-08 12:45 | 28.35796 | 113.34093 | 4893 ft | 264 kts | 56° |
| 2026-05-08 12:45 | 28.36811 | 113.35809 | 4901 ft | 265 kts | 56° |
| 2026-05-08 12:45 | 28.37837 | 113.37545 | 4904 ft | 265 kts | 56° |
| 2026-05-08 12:45 | 28.38864 | 113.39283 | 4905 ft | 265 kts | 56° |
| 2026-05-08 12:46 | 28.39890 | 113.41019 | 4908 ft | 265 kts | 56° |
| 2026-05-08 12:46 | 28.40914 | 113.42754 | 4907 ft | 265 kts | 56° |
| 2026-05-08 12:46 | 28.41940 | 113.44489 | 4909 ft | 265 kts | 57° |
| 2026-05-08 12:46 | 28.43080 | 113.46142 | 4907 ft | 267 kts | 46° |
| 2026-05-08 12:47 | 28.44589 | 113.47363 | 4909 ft | 268 kts | 26° |
| 2026-05-08 12:47 | 28.46381 | 113.47926 | 4906 ft | 269 kts | 8° |
| 2026-05-08 12:47 | 28.48248 | 113.48100 | 4907 ft | 270 kts | 4° |
| 2026-05-08 12:47 | 28.50103 | 113.48207 | 4971 ft | 271 kts | 4° |
| 2026-05-08 12:48 | 28.52002 | 113.48326 | 5419 ft | 276 kts | 4° |
| 2026-05-08 12:48 | 28.53921 | 113.48455 | 6275 ft | 278 kts | 4° |
| 2026-05-08 12:48 | 28.55863 | 113.48590 | 7122 ft | 280 kts | 3° |
| 2026-05-08 12:48 | 28.57804 | 113.48726 | 8103 ft | 280 kts | 2° |
| 2026-05-08 12:49 | 28.59762 | 113.48865 | 8989 ft | 284 kts | 1° |
| 2026-05-08 12:49 | 28.61751 | 113.49006 | 9840 ft | 289 kts | 0° |
| 2026-05-08 12:49 | 28.63786 | 113.49150 | 10480 ft | 302 kts | 360° |
| 2026-05-08 12:49 | 28.65927 | 113.49298 | 10806 ft | 323 kts | 360° |
| 2026-05-08 12:50 | 28.68245 | 113.49460 | 11117 ft | 344 kts | 360° |
| 2026-05-08 12:50 | 28.70704 | 113.49636 | 11473 ft | 361 kts | 0° |
| 2026-05-08 12:50 | 28.73228 | 113.49821 | 12105 ft | 367 kts | 360° |
| 2026-05-08 12:50 | 28.75790 | 113.50008 | 12794 ft | 372 kts | 359° |
| 2026-05-08 12:51 | 28.78395 | 113.50203 | 13449 ft | 377 kts | 359° |
| 2026-05-08 12:51 | 28.83689 | 113.50582 | 14651 ft | 385 kts | 359° |
| 2026-05-08 12:51 | 28.86339 | 113.50771 | 15223 ft | 388 kts | 359° |
| 2026-05-08 12:52 | 28.89051 | 113.50965 | 15782 ft | 392 kts | 359° |
| 2026-05-08 12:52 | 28.94551 | 113.51358 | 16844 ft | 401 kts | 359° |
| 2026-05-08 12:52 | 28.97352 | 113.51556 | 17358 ft | 404 kts | 359° |
| 2026-05-08 12:53 | 29.00170 | 113.51761 | 17964 ft | 407 kts | 358° |
| 2026-05-08 12:53 | 29.03004 | 113.51968 | 18493 ft | 410 kts | 358° |
| 2026-05-08 12:53 | 29.05865 | 113.52176 | 18962 ft | 414 kts | 358° |
| 2026-05-08 12:53 | 29.08751 | 113.52385 | 19454 ft | 417 kts | 358° |
| 2026-05-08 12:54 | 29.11655 | 113.52595 | 19945 ft | 420 kts | 358° |
| 2026-05-08 12:54 | 29.14543 | 113.52803 | 20426 ft | 423 kts | 358° |
| 2026-05-08 12:54 | 29.17495 | 113.53016 | 20917 ft | 426 kts | 358° |
| 2026-05-08 12:54 | 29.20465 | 113.53230 | 21407 ft | 430 kts | 358° |
| 2026-05-08 12:55 | 29.23462 | 113.53447 | 21849 ft | 433 kts | 358° |
| 2026-05-08 12:55 | 29.26482 | 113.53668 | 22290 ft | 436 kts | 358° |
| 2026-05-08 12:55 | 29.29518 | 113.53894 | 22669 ft | 439 kts | 358° |
| 2026-05-08 12:55 | 29.32586 | 113.54136 | 23145 ft | 443 kts | 358° |
| 2026-05-08 12:56 | 29.35667 | 113.54400 | 23605 ft | 447 kts | 358° |
| 2026-05-08 12:56 | 29.38804 | 113.54674 | 23849 ft | 456 kts | 358° |
| 2026-05-08 12:56 | 29.41975 | 113.54955 | 24257 ft | 458 kts | 358° |
| 2026-05-08 12:56 | 29.45116 | 113.55237 | 24737 ft | 459 kts | 358° |
| 2026-05-08 12:57 | 29.48309 | 113.55521 | 25219 ft | 461 kts | 358° |
| 2026-05-08 12:57 | 29.51514 | 113.55804 | 25717 ft | 463 kts | 358° |
| 2026-05-08 12:57 | 29.54736 | 113.56085 | 26207 ft | 465 kts | 357° |
| 2026-05-08 12:57 | 29.57970 | 113.56366 | 26688 ft | 468 kts | 357° |
| 2026-05-08 12:58 | 29.61221 | 113.56648 | 27201 ft | 470 kts | 357° |
| 2026-05-08 12:58 | 29.64501 | 113.56931 | 27608 ft | 475 kts | 357° |
| 2026-05-08 12:58 | 29.67805 | 113.57216 | 28060 ft | 478 kts | 357° |
| 2026-05-08 12:58 | 29.71083 | 113.57501 | 28535 ft | 480 kts | 357° |
| 2026-05-08 12:59 | 29.74422 | 113.57792 | 28994 ft | 483 kts | 357° |
| 2026-05-08 12:59 | 29.77780 | 113.58085 | 29430 ft | 485 kts | 357° |
| 2026-05-08 12:59 | 29.81157 | 113.58380 | 29865 ft | 488 kts | 357° |
| 2026-05-08 12:59 | 29.84554 | 113.58677 | 30273 ft | 491 kts | 357° |
| 2026-05-08 13:00 | 29.87965 | 113.58975 | 30649 ft | 493 kts | 357° |
| 2026-05-08 13:00 | 29.91407 | 113.59315 | 30932 ft | 500 kts | 359° |
| 2026-05-08 13:00 | 29.94857 | 113.60092 | 31274 ft | 511 kts | 8° |
| 2026-05-08 13:00 | 29.98252 | 113.61437 | 31633 ft | 519 kts | 13° |
| 2026-05-08 13:01 | 30.01570 | 113.62972 | 31950 ft | 523 kts | 14° |
| 2026-05-08 13:01 | 30.04927 | 113.64621 | 32245 ft | 526 kts | 15° |
| 2026-05-08 13:01 | 30.08292 | 113.66320 | 32529 ft | 529 kts | 15° |
| 2026-05-08 13:01 | 30.11661 | 113.68034 | 32933 ft | 528 kts | 15° |
| 2026-05-08 13:02 | 30.15013 | 113.69740 | 33401 ft | 526 kts | 15° |
| 2026-05-08 13:02 | 30.18355 | 113.71434 | 33849 ft | 524 kts | 14° |
| 2026-05-08 13:02 | 30.21690 | 113.73115 | 34241 ft | 522 kts | 14° |
| 2026-05-08 13:02 | 30.25022 | 113.74788 | 34545 ft | 522 kts | 14° |
| 2026-05-08 13:03 | 30.28357 | 113.76458 | 34826 ft | 521 kts | 13° |
| 2026-05-08 13:03 | 30.31638 | 113.78100 | 35111 ft | 521 kts | 13° |
| 2026-05-08 13:03 | 30.34972 | 113.79769 | 35238 ft | 523 kts | 13° |
| 2026-05-08 13:03 | 30.38313 | 113.81443 | 35270 ft | 523 kts | 13° |
| 2026-05-08 13:04 | 30.44978 | 113.84792 | 35251 ft | 522 kts | 14° |
| 2026-05-08 13:04 | 30.51647 | 113.88148 | 35250 ft | 523 kts | 14° |
| 2026-05-08 13:05 | 30.58319 | 113.91514 | 35249 ft | 523 kts | 14° |
| 2026-05-08 13:05 | 30.64940 | 113.94856 | 35252 ft | 523 kts | 14° |
| 2026-05-08 13:06 | 30.71637 | 113.98121 | 35252 ft | 522 kts | 13° |
| 2026-05-08 13:06 | 30.78258 | 114.01720 | 35254 ft | 527 kts | 17° |
| 2026-05-08 13:07 | 30.84852 | 114.05433 | 35265 ft | 526 kts | 16° |
| 2026-05-08 13:07 | 30.91444 | 114.09033 | 35252 ft | 527 kts | 15° |
| 2026-05-08 13:08 | 30.98090 | 114.12631 | 35243 ft | 527 kts | 15° |
| 2026-05-08 13:08 | 31.04743 | 114.16244 | 35244 ft | 527 kts | 16° |
| 2026-05-08 13:09 | 31.11402 | 114.19865 | 35244 ft | 528 kts | 16° |
| 2026-05-08 13:09 | 31.18021 | 114.23461 | 35250 ft | 529 kts | 16° |
| 2026-05-08 13:10 | 31.24680 | 114.27099 | 35242 ft | 529 kts | 16° |
| 2026-05-08 13:10 | 31.31346 | 114.30733 | 35264 ft | 527 kts | 15° |
| 2026-05-08 13:11 | 31.34747 | 114.32201 | 35247 ft | 515 kts | 6° |
| 2026-05-08 13:11 | 31.38166 | 114.33026 | 35247 ft | 502 kts | 357° |
| 2026-05-08 13:11 | 31.45065 | 114.33521 | 35246 ft | 495 kts | 352° |
| 2026-05-08 13:12 | 31.51948 | 114.33707 | 35247 ft | 494 kts | 351° |
| 2026-05-08 13:12 | 31.58826 | 114.33860 | 35249 ft | 494 kts | 352° |
| 2026-05-08 13:13 | 31.65709 | 114.34044 | 35249 ft | 495 kts | 352° |
| 2026-05-08 13:13 | 31.72546 | 114.34248 | 35250 ft | 495 kts | 352° |
| 2026-05-08 13:14 | 31.79417 | 114.34462 | 35274 ft | 495 kts | 352° |
| 2026-05-08 13:14 | 31.86303 | 114.34680 | 35250 ft | 496 kts | 352° |
| 2026-05-08 13:15 | 31.93221 | 114.34883 | 35252 ft | 496 kts | 352° |
| 2026-05-08 13:15 | 32.00075 | 114.35084 | 35253 ft | 496 kts | 352° |
| 2026-05-08 13:16 | 32.06979 | 114.35289 | 35254 ft | 496 kts | 353° |
| 2026-05-08 13:16 | 32.13881 | 114.35499 | 35251 ft | 496 kts | 353° |
| 2026-05-08 13:17 | 32.20783 | 114.35708 | 35250 ft | 496 kts | 353° |
| 2026-05-08 13:17 | 32.27678 | 114.35935 | 35252 ft | 497 kts | 354° |
| 2026-05-08 13:18 | 32.34559 | 114.36514 | 35251 ft | 499 kts | 357° |
| 2026-05-08 13:18 | 32.41473 | 114.37241 | 35255 ft | 499 kts | 357° |
| 2026-05-08 13:19 | 32.48388 | 114.37925 | 35248 ft | 498 kts | 357° |
| 2026-05-08 13:19 | 32.55306 | 114.38567 | 35251 ft | 498 kts | 357° |
| 2026-05-08 13:20 | 32.62200 | 114.39199 | 35249 ft | 497 kts | 357° |
| 2026-05-08 13:20 | 32.69060 | 114.39835 | 35248 ft | 498 kts | 357° |
| 2026-05-08 13:21 | 32.75966 | 114.40475 | 35249 ft | 498 kts | 357° |
| 2026-05-08 13:21 | 32.82862 | 114.41113 | 35249 ft | 497 kts | 358° |
| 2026-05-08 13:22 | 32.89744 | 114.41755 | 35249 ft | 496 kts | 358° |
| 2026-05-08 13:22 | 32.96582 | 114.42394 | 35248 ft | 496 kts | 358° |
| 2026-05-08 13:23 | 33.03465 | 114.43037 | 35255 ft | 496 kts | 358° |
| 2026-05-08 13:23 | 33.10344 | 114.43683 | 35248 ft | 495 kts | 358° |
| 2026-05-08 13:24 | 33.17212 | 114.44329 | 35246 ft | 495 kts | 358° |
| 2026-05-08 13:24 | 33.24085 | 114.44975 | 35246 ft | 495 kts | 358° |
| 2026-05-08 13:25 | 33.30913 | 114.45623 | 35245 ft | 495 kts | 358° |
| 2026-05-08 13:25 | 33.37765 | 114.46271 | 35243 ft | 494 kts | 358° |
| 2026-05-08 13:26 | 33.44625 | 114.46911 | 35246 ft | 494 kts | 358° |
| 2026-05-08 13:26 | 33.51441 | 114.47551 | 35244 ft | 493 kts | 358° |
| 2026-05-08 13:27 | 33.58263 | 114.48198 | 35244 ft | 491 kts | 358° |
| 2026-05-08 13:27 | 33.65080 | 114.48844 | 35243 ft | 491 kts | 358° |
| 2026-05-08 13:28 | 33.71892 | 114.49479 | 35252 ft | 491 kts | 358° |
| 2026-05-08 13:28 | 33.78695 | 114.50113 | 35243 ft | 490 kts | 358° |
| 2026-05-08 13:29 | 33.85438 | 114.50747 | 35243 ft | 489 kts | 358° |
| 2026-05-08 13:29 | 33.92224 | 114.51385 | 35243 ft | 489 kts | 358° |
| 2026-05-08 13:30 | 33.99009 | 114.52023 | 35243 ft | 489 kts | 358° |
| 2026-05-08 13:30 | 34.05795 | 114.52664 | 35243 ft | 489 kts | 358° |
| 2026-05-08 13:31 | 34.12533 | 114.53302 | 35241 ft | 489 kts | 358° |
| 2026-05-08 13:31 | 34.19322 | 114.53946 | 35266 ft | 489 kts | 357° |
| 2026-05-08 13:32 | 34.26107 | 114.54591 | 35237 ft | 489 kts | 357° |
| 2026-05-08 13:32 | 34.32886 | 114.55237 | 35238 ft | 489 kts | 357° |
| 2026-05-08 13:33 | 34.39625 | 114.55879 | 35237 ft | 489 kts | 357° |
| 2026-05-08 13:33 | 34.46405 | 114.56528 | 35238 ft | 488 kts | 357° |
| 2026-05-08 13:34 | 34.53165 | 114.57176 | 35238 ft | 487 kts | 357° |
| 2026-05-08 13:34 | 34.59927 | 114.57812 | 35232 ft | 487 kts | 357° |
| 2026-05-08 13:35 | 34.66682 | 114.58450 | 35244 ft | 487 kts | 357° |
| 2026-05-08 13:35 | 34.73391 | 114.59087 | 35236 ft | 487 kts | 357° |
| 2026-05-08 13:36 | 34.80139 | 114.59730 | 35231 ft | 487 kts | 357° |
| 2026-05-08 13:36 | 34.86892 | 114.60374 | 35218 ft | 487 kts | 357° |
| 2026-05-08 13:37 | 34.93643 | 114.61021 | 35219 ft | 486 kts | 356° |
| 2026-05-08 13:37 | 35.00380 | 114.61666 | 35222 ft | 486 kts | 356° |
| 2026-05-08 13:38 | 35.07070 | 114.62307 | 35218 ft | 486 kts | 356° |
| 2026-05-08 13:38 | 35.13801 | 114.62954 | 35222 ft | 485 kts | 356° |
| 2026-05-08 13:39 | 35.20526 | 114.63603 | 35208 ft | 484 kts | 356° |
| 2026-05-08 13:39 | 35.27197 | 114.64245 | 35212 ft | 484 kts | 356° |
| 2026-05-08 13:40 | 35.33910 | 114.64893 | 35231 ft | 484 kts | 356° |
| 2026-05-08 13:40 | 35.40626 | 114.65543 | 35202 ft | 483 kts | 356° |
| 2026-05-08 13:41 | 35.47325 | 114.66192 | 35197 ft | 483 kts | 356° |
| 2026-05-08 13:41 | 35.54032 | 114.66842 | 35197 ft | 483 kts | 356° |
| 2026-05-08 13:42 | 35.60734 | 114.67495 | 35196 ft | 483 kts | 355° |
| 2026-05-08 13:42 | 35.67377 | 114.68142 | 35182 ft | 482 kts | 355° |
| 2026-05-08 13:43 | 35.74065 | 114.68793 | 35176 ft | 482 kts | 355° |
| 2026-05-08 13:43 | 35.80748 | 114.69446 | 35190 ft | 482 kts | 355° |
| 2026-05-08 13:44 | 35.87436 | 114.70101 | 35175 ft | 482 kts | 355° |
| 2026-05-08 13:44 | 35.94074 | 114.70751 | 35169 ft | 482 kts | 355° |
| 2026-05-08 13:45 | 36.00757 | 114.71407 | 35171 ft | 482 kts | 355° |
| 2026-05-08 13:45 | 36.07436 | 114.72065 | 35164 ft | 481 kts | 355° |
| 2026-05-08 13:46 | 36.12985 | 114.72619 | 35161 ft | 481 kts | 355° |
| 2026-05-08 13:46 | 36.20735 | 114.73372 | 35157 ft | 481 kts | 355° |
| 2026-05-08 13:47 | 36.27407 | 114.74021 | 35151 ft | 481 kts | 355° |
| 2026-05-08 13:47 | 36.34086 | 114.74722 | 35149 ft | 485 kts | 358° |
| 2026-05-08 13:48 | 36.40713 | 114.76973 | 35151 ft | 505 kts | 14° |
| 2026-05-08 13:48 | 36.46084 | 114.79910 | 35150 ft | 509 kts | 16° |
| 2026-05-08 13:49 | 36.52494 | 114.83660 | 35131 ft | 509 kts | 16° |
| 2026-05-08 13:49 | 36.58897 | 114.87430 | 35134 ft | 509 kts | 16° |
| 2026-05-08 13:50 | 36.65258 | 114.91145 | 35146 ft | 509 kts | 16° |
| 2026-05-08 13:50 | 36.71663 | 114.94874 | 35117 ft | 508 kts | 16° |
| 2026-05-08 13:51 | 36.79105 | 114.99211 | 35113 ft | 508 kts | 16° |
| 2026-05-08 13:51 | 36.84422 | 115.02316 | 35129 ft | 508 kts | 16° |
| 2026-05-08 13:52 | 36.90811 | 115.06056 | 35109 ft | 507 kts | 16° |
| 2026-05-08 13:52 | 36.97195 | 115.09800 | 35101 ft | 507 kts | 16° |
| 2026-05-08 13:53 | 37.03574 | 115.13547 | 35139 ft | 507 kts | 16° |
| 2026-05-08 13:53 | 37.09943 | 115.17297 | 35096 ft | 505 kts | 16° |
| 2026-05-08 13:54 | 37.16299 | 115.21044 | 35090 ft | 504 kts | 16° |
| 2026-05-08 13:54 | 37.22605 | 115.24769 | 35112 ft | 505 kts | 16° |
| 2026-05-08 13:55 | 37.28955 | 115.28527 | 35088 ft | 503 kts | 16° |
| 2026-05-08 13:56 | 37.38449 | 115.34158 | 35077 ft | 503 kts | 16° |
| 2026-05-08 13:56 | 37.44738 | 115.37897 | 35084 ft | 503 kts | 16° |
| 2026-05-08 13:57 | 37.51055 | 115.41661 | 35079 ft | 503 kts | 16° |
| 2026-05-08 13:57 | 37.57379 | 115.45435 | 35072 ft | 503 kts | 16° |
| 2026-05-08 13:58 | 37.63694 | 115.49211 | 35068 ft | 503 kts | 16° |
| 2026-05-08 13:58 | 37.70014 | 115.52997 | 35070 ft | 503 kts | 17° |
| 2026-05-08 13:59 | 37.76320 | 115.56643 | 35075 ft | 496 kts | 11° |
| 2026-05-08 13:59 | 37.79590 | 115.57867 | 35058 ft | 484 kts | 2° |
| 2026-05-08 13:59 | 37.82887 | 115.58438 | 35073 ft | 473 kts | 354° |
| 2026-05-08 14:00 | 37.89389 | 115.58307 | 35058 ft | 466 kts | 349° |
| 2026-05-08 14:00 | 37.95855 | 115.57840 | 35059 ft | 465 kts | 348° |
| 2026-05-08 14:01 | 38.02268 | 115.57338 | 35081 ft | 465 kts | 348° |
| 2026-05-08 14:01 | 38.08733 | 115.56860 | 35056 ft | 466 kts | 349° |
| 2026-05-08 14:02 | 38.15203 | 115.56402 | 35055 ft | 466 kts | 349° |
| 2026-05-08 14:02 | 38.21679 | 115.55981 | 35053 ft | 468 kts | 352° |
| 2026-05-08 14:03 | 38.28200 | 115.56987 | 35057 ft | 486 kts | 8° |
| 2026-05-08 14:03 | 38.34563 | 115.60288 | 35057 ft | 498 kts | 18° |
| 2026-05-08 14:04 | 38.40801 | 115.64209 | 35069 ft | 500 kts | 19° |
| 2026-05-08 14:04 | 38.47013 | 115.68202 | 35061 ft | 499 kts | 19° |
| 2026-05-08 14:05 | 38.53178 | 115.72134 | 35056 ft | 498 kts | 19° |
| 2026-05-08 14:05 | 38.59385 | 115.76067 | 35065 ft | 498 kts | 19° |
| 2026-05-08 14:06 | 38.65450 | 115.80405 | 35066 ft | 506 kts | 30° |
| 2026-05-08 14:06 | 38.70648 | 115.86632 | 35065 ft | 515 kts | 41° |
| 2026-05-08 14:07 | 38.75443 | 115.93402 | 35071 ft | 517 kts | 43° |
| 2026-05-08 14:07 | 38.80204 | 116.00304 | 35066 ft | 516 kts | 43° |
| 2026-05-08 14:08 | 38.84953 | 116.07169 | 35068 ft | 514 kts | 43° |
| 2026-05-08 14:08 | 38.89705 | 116.14006 | 35071 ft | 513 kts | 43° |
| 2026-05-08 14:09 | 38.94430 | 116.20803 | 35072 ft | 513 kts | 43° |
| 2026-05-08 14:09 | 38.99133 | 116.27587 | 35072 ft | 512 kts | 43° |
| 2026-05-08 14:10 | 39.03862 | 116.34424 | 35072 ft | 512 kts | 43° |
| 2026-05-08 14:10 | 39.08593 | 116.41280 | 35097 ft | 512 kts | 43° |
| 2026-05-08 14:11 | 39.13243 | 116.48148 | 35074 ft | 515 kts | 47° |
| 2026-05-08 14:11 | 39.16752 | 116.56275 | 35080 ft | 527 kts | 67° |
| 2026-05-08 14:11 | 39.17667 | 116.60863 | 35076 ft | 533 kts | 78° |
| 2026-05-08 14:12 | 39.17917 | 116.65641 | 35084 ft | 537 kts | 90° |
| 2026-05-08 14:12 | 39.16854 | 116.75197 | 35086 ft | 540 kts | 100° |
| 2026-05-08 14:13 | 39.15336 | 116.84617 | 35089 ft | 541 kts | 101° |
| 2026-05-08 14:13 | 39.13780 | 116.94076 | 35093 ft | 541 kts | 101° |
| 2026-05-08 14:14 | 39.12286 | 117.03572 | 35097 ft | 542 kts | 99° |
| 2026-05-08 14:14 | 39.11024 | 117.13141 | 35111 ft | 541 kts | 98° |
| 2026-05-08 14:15 | 39.09819 | 117.22635 | 35122 ft | 542 kts | 98° |
| 2026-05-08 14:15 | 39.08563 | 117.32208 | 35120 ft | 543 kts | 98° |
| 2026-05-08 14:16 | 39.07842 | 117.41841 | 35120 ft | 541 kts | 90° |
| 2026-05-08 14:16 | 39.07677 | 117.51514 | 35123 ft | 541 kts | 89° |
| 2026-05-08 14:17 | 39.07587 | 117.61148 | 35114 ft | 542 kts | 88° |
| 2026-05-08 14:17 | 39.07488 | 117.70845 | 35115 ft | 542 kts | 89° |
| 2026-05-08 14:18 | 39.07366 | 117.80551 | 35112 ft | 542 kts | 89° |
| 2026-05-08 14:18 | 39.07231 | 117.90256 | 35117 ft | 543 kts | 89° |
| 2026-05-08 14:19 | 39.07085 | 117.99906 | 35112 ft | 543 kts | 89° |
| 2026-05-08 14:19 | 39.06078 | 118.09542 | 35119 ft | 545 kts | 99° |
| 2026-05-08 14:20 | 39.04602 | 118.19124 | 35118 ft | 545 kts | 100° |
| 2026-05-08 14:20 | 39.03056 | 118.28671 | 35123 ft | 545 kts | 101° |
| 2026-05-08 14:21 | 39.01806 | 118.38258 | 35133 ft | 543 kts | 90° |
| 2026-05-08 14:21 | 39.01921 | 118.43088 | 35133 ft | 538 kts | 79° |
| 2026-05-08 14:21 | 39.02668 | 118.47697 | 35132 ft | 531 kts | 68° |
| 2026-05-08 14:21 | 39.04048 | 118.52058 | 35132 ft | 523 kts | 57° |
| 2026-05-08 14:22 | 39.05985 | 118.55960 | 35134 ft | 514 kts | 46° |
| 2026-05-08 14:22 | 39.08387 | 118.59303 | 35134 ft | 504 kts | 35° |
| 2026-05-08 14:22 | 39.11149 | 118.62008 | 35134 ft | 494 kts | 25° |
| 2026-05-08 14:23 | 39.17324 | 118.65359 | 35140 ft | 474 kts | 6° |
| 2026-05-08 14:23 | 39.23712 | 118.65977 | 35139 ft | 456 kts | 349° |
| 2026-05-08 14:24 | 39.29855 | 118.64336 | 35140 ft | 449 kts | 339° |
| 2026-05-08 14:24 | 39.35975 | 118.62618 | 35131 ft | 455 kts | 348° |
| 2026-05-08 14:25 | 39.42375 | 118.62927 | 35140 ft | 467 kts | 3° |
| 2026-05-08 14:25 | 39.48769 | 118.64651 | 35139 ft | 471 kts | 7° |
| 2026-05-08 14:26 | 39.55092 | 118.66674 | 35156 ft | 472 kts | 7° |
| 2026-05-08 14:26 | 39.61461 | 118.68712 | 35143 ft | 470 kts | 7° |
| 2026-05-08 14:27 | 39.67820 | 118.70700 | 35140 ft | 470 kts | 7° |
| 2026-05-08 14:27 | 39.74041 | 118.73261 | 35144 ft | 479 kts | 18° |
| 2026-05-08 14:28 | 39.79778 | 118.77834 | 35140 ft | 487 kts | 28° |
| 2026-05-08 14:28 | 39.85301 | 118.82975 | 35142 ft | 489 kts | 29° |
| 2026-05-08 14:29 | 39.90781 | 118.88193 | 35146 ft | 487 kts | 30° |
| 2026-05-08 14:29 | 39.96247 | 118.93378 | 35149 ft | 485 kts | 29° |
| 2026-05-08 14:30 | 40.01679 | 118.98507 | 35152 ft | 485 kts | 29° |
| 2026-05-08 14:30 | 40.07130 | 119.03661 | 35151 ft | 482 kts | 29° |
| 2026-05-08 14:31 | 40.12548 | 119.08797 | 35156 ft | 481 kts | 29° |
| 2026-05-08 14:31 | 40.17961 | 119.13930 | 35166 ft | 481 kts | 29° |
| 2026-05-08 14:32 | 40.26026 | 119.21575 | 35156 ft | 478 kts | 29° |
| 2026-05-08 14:32 | 40.31448 | 119.26609 | 35168 ft | 478 kts | 28° |
| 2026-05-08 14:33 | 40.36868 | 119.31642 | 35154 ft | 477 kts | 28° |
| 2026-05-08 14:33 | 40.42275 | 119.36697 | 35153 ft | 477 kts | 28° |
| 2026-05-08 14:34 | 40.47638 | 119.41729 | 35149 ft | 477 kts | 28° |
| 2026-05-08 14:34 | 40.53032 | 119.46800 | 35146 ft | 477 kts | 28° |
| 2026-05-08 14:35 | 40.58421 | 119.51874 | 35146 ft | 476 kts | 28° |
| 2026-05-08 14:35 | 40.63806 | 119.56957 | 35148 ft | 476 kts | 28° |
| 2026-05-08 14:36 | 40.69138 | 119.61995 | 35141 ft | 475 kts | 28° |
| 2026-05-08 14:36 | 40.74499 | 119.67079 | 35141 ft | 474 kts | 29° |
| 2026-05-08 14:37 | 40.79861 | 119.72168 | 35151 ft | 474 kts | 29° |
| 2026-05-08 14:37 | 40.85206 | 119.77255 | 35138 ft | 473 kts | 29° |
| 2026-05-08 14:38 | 40.90502 | 119.82306 | 35130 ft | 473 kts | 29° |
| 2026-05-08 14:38 | 40.95836 | 119.87400 | 35139 ft | 472 kts | 29° |
| 2026-05-08 14:39 | 41.01158 | 119.92495 | 35136 ft | 472 kts | 29° |
| 2026-05-08 14:39 | 41.06470 | 119.97590 | 35137 ft | 472 kts | 29° |
| 2026-05-08 14:40 | 41.11789 | 120.02697 | 35128 ft | 472 kts | 29° |
| 2026-05-08 14:40 | 41.17064 | 120.07776 | 35133 ft | 472 kts | 29° |
| 2026-05-08 14:41 | 41.22378 | 120.12909 | 35131 ft | 472 kts | 29° |
| 2026-05-08 14:41 | 41.27685 | 120.18043 | 35130 ft | 472 kts | 29° |
| 2026-05-08 14:42 | 41.32989 | 120.23182 | 35127 ft | 471 kts | 29° |
| 2026-05-08 14:42 | 41.38253 | 120.28290 | 35127 ft | 472 kts | 29° |
| 2026-05-08 14:43 | 41.43547 | 120.33442 | 35125 ft | 471 kts | 29° |
| 2026-05-08 14:43 | 41.48714 | 120.38834 | 35127 ft | 479 kts | 37° |
| 2026-05-08 14:44 | 41.52833 | 120.45970 | 35146 ft | 497 kts | 55° |
| 2026-05-08 14:44 | 41.55033 | 120.54853 | 35140 ft | 516 kts | 76° |
| 2026-05-08 14:45 | 41.55224 | 120.59618 | 35129 ft | 526 kts | 87° |
| 2026-05-08 14:45 | 41.55074 | 120.64490 | 35131 ft | 524 kts | 83° |
| 2026-05-08 14:45 | 41.55408 | 120.74187 | 35131 ft | 523 kts | 81° |
| 2026-05-08 14:46 | 41.55834 | 120.83872 | 35130 ft | 522 kts | 81° |
| 2026-05-08 14:46 | 41.56300 | 120.93548 | 35140 ft | 522 kts | 81° |
| 2026-05-08 14:47 | 41.56773 | 121.03218 | 35148 ft | 523 kts | 80° |
| 2026-05-08 14:47 | 41.57240 | 121.12841 | 35141 ft | 523 kts | 81° |
| 2026-05-08 14:48 | 41.57681 | 121.22543 | 35149 ft | 524 kts | 82° |
| 2026-05-08 14:48 | 41.57937 | 121.32266 | 35148 ft | 524 kts | 82° |
| 2026-05-08 14:49 | 41.58194 | 121.41996 | 35152 ft | 525 kts | 82° |
| 2026-05-08 14:49 | 41.58455 | 121.51694 | 35146 ft | 526 kts | 82° |
| 2026-05-08 14:50 | 41.58710 | 121.61448 | 35161 ft | 526 kts | 82° |
| 2026-05-08 14:50 | 41.58962 | 121.71211 | 35154 ft | 526 kts | 83° |
| 2026-05-08 14:51 | 41.59205 | 121.80979 | 35156 ft | 526 kts | 83° |
| 2026-05-08 14:51 | 41.59438 | 121.90683 | 35156 ft | 526 kts | 83° |
| 2026-05-08 14:52 | 41.59774 | 122.05330 | 35140 ft | 525 kts | 83° |
| 2026-05-08 14:52 | 41.59822 | 122.10208 | 34847 ft | 527 kts | 87° |
| 2026-05-08 14:53 | 41.59449 | 122.15112 | 34247 ft | 533 kts | 93° |
| 2026-05-08 14:53 | 41.58915 | 122.19962 | 33449 ft | 534 kts | 94° |
| 2026-05-08 14:53 | 41.58355 | 122.24864 | 32642 ft | 534 kts | 94° |
| 2026-05-08 14:53 | 41.57796 | 122.29777 | 31828 ft | 534 kts | 94° |
| 2026-05-08 14:54 | 41.57249 | 122.34611 | 31047 ft | 535 kts | 94° |
| 2026-05-08 14:54 | 41.56694 | 122.39530 | 30270 ft | 536 kts | 94° |
| 2026-05-08 14:54 | 41.56138 | 122.44453 | 29401 ft | 537 kts | 94° |
| 2026-05-08 14:54 | 41.55581 | 122.49369 | 28531 ft | 534 kts | 94° |
| 2026-05-08 14:55 | 41.55025 | 122.54252 | 27715 ft | 530 kts | 95° |
| 2026-05-08 14:55 | 41.54472 | 122.59105 | 26897 ft | 527 kts | 95° |
| 2026-05-08 14:55 | 41.53924 | 122.63891 | 26162 ft | 522 kts | 95° |
| 2026-05-08 14:55 | 41.53377 | 122.68647 | 25473 ft | 516 kts | 95° |
| 2026-05-08 14:56 | 41.52714 | 122.73340 | 24786 ft | 512 kts | 99° |
| 2026-05-08 14:56 | 41.52075 | 122.77923 | 24147 ft | 505 kts | 97° |
| 2026-05-08 14:56 | 41.51557 | 122.82441 | 23424 ft | 484 kts | 95° |
| 2026-05-08 14:56 | 41.51093 | 122.86858 | 22619 ft | 478 kts | 95° |
| 2026-05-08 14:57 | 41.50628 | 122.91217 | 21852 ft | 473 kts | 95° |
| 2026-05-08 14:57 | 41.50159 | 122.95529 | 21099 ft | 467 kts | 96° |
| 2026-05-08 14:57 | 41.49689 | 122.99784 | 20361 ft | 461 kts | 96° |
| 2026-05-08 14:57 | 41.49220 | 123.03988 | 19628 ft | 455 kts | 96° |
| 2026-05-08 14:58 | 41.48753 | 123.08169 | 18938 ft | 456 kts | 96° |
| 2026-05-08 14:58 | 41.48287 | 123.12274 | 18259 ft | 452 kts | 97° |
| 2026-05-08 14:58 | 41.47788 | 123.16392 | 17498 ft | 447 kts | 97° |
| 2026-05-08 14:58 | 41.47320 | 123.20460 | 16772 ft | 441 kts | 94° |
| 2026-05-08 14:59 | 41.47405 | 123.24433 | 16089 ft | 418 kts | 76° |
| 2026-05-08 14:59 | 41.48898 | 123.31833 | 14822 ft | 413 kts | 71° |
| 2026-05-08 14:59 | 41.49695 | 123.35508 | 14159 ft | 412 kts | 71° |
| 2026-05-08 15:00 | 41.50494 | 123.39159 | 13472 ft | 406 kts | 69° |
| 2026-05-08 15:00 | 41.51588 | 123.42529 | 12758 ft | 398 kts | 59° |
| 2026-05-08 15:00 | 41.52892 | 123.45754 | 12073 ft | 392 kts | 58° |
| 2026-05-08 15:00 | 41.54198 | 123.48924 | 11380 ft | 387 kts | 58° |
| 2026-05-08 15:01 | 41.55483 | 123.52058 | 10712 ft | 383 kts | 58° |
| 2026-05-08 15:01 | 41.56757 | 123.55151 | 10061 ft | 378 kts | 56° |
| 2026-05-08 15:01 | 41.58278 | 123.57914 | 9379 ft | 357 kts | 46° |
| 2026-05-08 15:01 | 41.59860 | 123.60317 | 8838 ft | 333 kts | 45° |
| 2026-05-08 15:02 | 41.61347 | 123.62551 | 8326 ft | 312 kts | 45° |
| 2026-05-08 15:02 | 41.62748 | 123.64659 | 7824 ft | 295 kts | 45° |
| 2026-05-08 15:02 | 41.64059 | 123.66643 | 7568 ft | 273 kts | 45° |
| 2026-05-08 15:02 | 41.65247 | 123.68448 | 7344 ft | 253 kts | 45° |
| 2026-05-08 15:03 | 41.66390 | 123.70161 | 7000 ft | 241 kts | 44° |
| 2026-05-08 15:03 | 41.67487 | 123.71803 | 6643 ft | 233 kts | 44° |
| 2026-05-08 15:03 | 41.68553 | 123.73400 | 6269 ft | 229 kts | 45° |
| 2026-05-08 15:03 | 41.69609 | 123.75004 | 5923 ft | 229 kts | 46° |
| 2026-05-08 15:04 | 41.70660 | 123.76608 | 5592 ft | 229 kts | 45° |
| 2026-05-08 15:04 | 41.71711 | 123.78211 | 5269 ft | 229 kts | 46° |
| 2026-05-08 15:04 | 41.72761 | 123.79815 | 4936 ft | 229 kts | 46° |
| 2026-05-08 15:04 | 41.73793 | 123.81402 | 4601 ft | 229 kts | 47° |
| 2026-05-08 15:05 | 41.74844 | 123.83003 | 4273 ft | 229 kts | 47° |
| 2026-05-08 15:05 | 41.75893 | 123.84596 | 3938 ft | 228 kts | 47° |
| 2026-05-08 15:05 | 41.77112 | 123.85925 | 3604 ft | 225 kts | 25° |
| 2026-05-08 15:05 | 41.78612 | 123.86316 | 3315 ft | 220 kts | 353° |
| 2026-05-08 15:06 | 41.79994 | 123.85641 | 3151 ft | 208 kts | 324° |
| 2026-05-08 15:06 | 41.81085 | 123.84470 | 3077 ft | 194 kts | 317° |
| 2026-05-08 15:06 | 41.82058 | 123.83319 | 2977 ft | 180 kts | 317° |
| 2026-05-08 15:06 | 41.82930 | 123.82174 | 2887 ft | 173 kts | 308° |
| 2026-05-08 15:07 | 41.83503 | 123.80807 | 2797 ft | 172 kts | 287° |
| 2026-05-08 15:07 | 41.83630 | 123.79236 | 2695 ft | 171 kts | 263° |
| 2026-05-08 15:07 | 41.83275 | 123.77731 | 2591 ft | 170 kts | 240° |
| 2026-05-08 15:07 | 41.82570 | 123.76464 | 2503 ft | 169 kts | 229° |
| 2026-05-08 15:08 | 41.81786 | 123.75289 | 2391 ft | 169 kts | 228° |
| 2026-05-08 15:08 | 41.81263 | 123.74515 | 2340 ft | 169 kts | 228° |
| 2026-05-08 15:08 | 41.80211 | 123.72941 | 2180 ft | 169 kts | 228° |
| 2026-05-08 15:08 | 41.79433 | 123.71765 | 2087 ft | 168 kts | 228° |
| 2026-05-08 15:09 | 41.78655 | 123.70594 | 2015 ft | 168 kts | 228° |
| 2026-05-08 15:09 | 41.77894 | 123.69436 | 2003 ft | 168 kts | 229° |
| 2026-05-08 15:09 | 41.77125 | 123.68261 | 2004 ft | 168 kts | 229° |
| 2026-05-08 15:09 | 41.76356 | 123.67087 | 2002 ft | 168 kts | 229° |
| 2026-05-08 15:10 | 41.75589 | 123.65917 | 2002 ft | 167 kts | 229° |
| 2026-05-08 15:10 | 41.74820 | 123.64744 | 2004 ft | 167 kts | 229° |
| 2026-05-08 15:10 | 41.74090 | 123.63628 | 2017 ft | 150 kts | 229° |
| 2026-05-08 15:10 | 41.73445 | 123.62646 | 2007 ft | 134 kts | 228° |
| 2026-05-08 15:11 | 41.72837 | 123.61722 | 2007 ft | 132 kts | 228° |
| 2026-05-08 15:11 | 41.72229 | 123.60798 | 2005 ft | 133 kts | 228° |
| 2026-05-08 15:11 | 41.71619 | 123.59872 | 2002 ft | 133 kts | 228° |
| 2026-05-08 15:11 | 41.71014 | 123.58954 | 1998 ft | 133 kts | 228° |
| 2026-05-08 15:12 | 41.70399 | 123.58027 | 2002 ft | 133 kts | 228° |
| 2026-05-08 15:12 | 41.69782 | 123.57090 | 1882 ft | 134 kts | 228° |
| 2026-05-08 15:12 | 41.69156 | 123.56124 | 1457 ft | 144 kts | 228° |
| 2026-05-08 15:12 | 41.68527 | 123.55143 | 1277 ft | 135 kts | 228° |
| 2026-05-08 15:13 | 41.67900 | 123.54235 | 1058 ft | 132 kts | 228° |
| 2026-05-08 15:13 | 41.67299 | 123.53311 | 894 ft | 133 kts | 227° |
| 2026-05-08 15:13 | 41.66688 | 123.52402 | 731 ft | 133 kts | 227° |
| 2026-05-08 15:13 | 41.66073 | 123.51482 | 539 ft | 132 kts | 227° |
| 2026-05-08 15:14 | 41.65460 | 123.50562 | 387 ft | 133 kts | 229° |
| 2026-05-08 15:14 | 41.64852 | 123.49647 | 238 ft | 133 kts | 227° |
| 2026-05-08 15:14 | 41.64322 | 123.48836 | 215 ft | 86 kts | 228° |
| 2026-05-08 15:14 | 41.64100 | 123.48504 | 215 ft | 28 kts | 229° |
| 2026-05-08 15:15 | 41.63968 | 123.48307 | 218 ft | 28 kts | 228° |
| 2026-05-08 15:15 | 41.63839 | 123.48106 | 215 ft | 29 kts | 226° |
| 2026-05-08 15:15 | 41.63704 | 123.47950 | 218 ft | 20 kts | 208° |
| 2026-05-08 15:15 | 41.63576 | 123.47878 | 213 ft | 19 kts | 197° |
| 2026-05-08 15:16 | 41.63480 | 123.47842 | 217 ft | 10 kts | 201° |
| 2026-05-08 15:16 | 41.63415 | 123.47823 | 219 ft | 8 kts | 169° |
| 2026-05-08 15:16 | 41.63359 | 123.47859 | 216 ft | 10 kts | 143° |
| 2026-05-08 15:16 | 41.63305 | 123.47922 | 223 ft | 11 kts | 137° |
| 2026-05-08 15:17 | 41.63249 | 123.48004 | 216 ft | 12 kts | 116° |
| 2026-05-08 15:17 | 41.63247 | 123.48103 | 218 ft | 10 kts | 81° |
| 2026-05-08 15:17 | 41.63251 | 123.48133 | 213 ft | 0 kts | 79° |
| 2026-05-08 15:17 | 41.63252 | 123.48138 | 216 ft | 0 kts | 79° |